Main page
METAR-TAF:

METAR-TAF

Airports :

Ondangwa Airport

Ondangwa, Namibia

latitude: 17-52-42S, longitude: 015-57-09E, elevation: 1096 m

Current weather observation

The report was made 22 minutes ago, at 05:00 UTC
Calm wind
Temperature 22°C
Humidity 57%
Pressure 1016 hPa
Visibility 10 km or more
no clouds below 1500 m and no cumulonimbus

METAR: FYOA 200500Z 00000KT CAVOK 22/13 Q1016

Time: 06:22 (05:22 UTC)

Forecast

The report was made 3 hours and 22 minutes ago, at 02:00 UTC
Forecast valid from 20 at 03 UTC to 20 at 12 UTC
Wind 3 kt from the East/Northeast
Visibility 10 km or more
no clouds below 1500 m and no cumulonimbus
Becoming
from 20 at 04 UTC to 20 at 06 UTC
Wind 4 kt from the West/Northwest
Scattered clouds at a height of 5000 ft

TAF: FYOA 200200Z 2003/2012 07003KT CAVOK BECMG 2004/2006 30004KT SCT050

Weather observations and forecasts of more than 4000 airports (METAR and TAF reports).

The available stations are represented by yellow and red dots on the map.

Hover mouse over dot to see the name of the station.

Then click to see weather observations and forecasts.

To change the map : click on the green buttons with a black cross to zoom in, on the green button with a dash to zoom out, or on the green arrows for adjacent maps.


METAR-TAF: